createdAt,value
2023-03-17T00:01:25.021Z,13.25
2023-03-17T00:03:53.264Z,7.50
2023-03-17T00:06:28.566Z,6.00
2023-03-17T00:08:58.442Z,10.05
2023-03-17T00:11:28.461Z,8.43
2023-03-17T00:13:56.749Z,10.67
2023-03-17T00:16:27.103Z,9.32
2023-03-17T00:18:56.757Z,10.52
2023-03-17T00:21:28.733Z,5.95
2023-03-17T00:23:58.855Z,12.10
2023-03-17T00:26:27.737Z,6.18
2023-03-17T00:28:55.938Z,9.18
2023-03-17T00:31:27.325Z,11.65
2023-03-17T00:33:56.506Z,5.68
2023-03-17T00:36:28.122Z,8.23
2023-03-17T00:38:58.456Z,9.55
2023-03-17T00:41:27.197Z,8.75
2023-03-17T00:43:55.449Z,11.07
2023-03-17T00:46:27.577Z,7.72
2023-03-17T00:48:56.074Z,5.75
2023-03-17T00:51:24.418Z,7.38
2023-03-17T00:53:52.770Z,10.00
2023-03-17T00:56:23.244Z,6.40
2023-03-17T00:58:51.570Z,8.73
2023-03-17T01:01:19.982Z,8.43
2023-03-17T01:03:48.634Z,8.50
2023-03-17T01:06:17.674Z,5.45
2023-03-17T01:08:46.578Z,7.50
2023-03-17T01:11:18.661Z,6.13
2023-03-17T01:13:49.734Z,7.07
2023-03-17T01:16:18.064Z,7.60
2023-03-17T01:18:46.271Z,5.13
2023-03-17T01:21:14.378Z,6.10
2023-03-17T01:23:43.679Z,5.43
2023-03-17T01:26:12.667Z,6.70
2023-03-17T01:28:40.642Z,4.85
2023-03-17T01:31:10.459Z,5.47
2023-03-17T01:33:38.499Z,7.30
2023-03-17T01:36:06.992Z,6.22
2023-03-17T01:38:35.902Z,6.70
2023-03-17T01:41:04.566Z,7.07
2023-03-17T01:43:32.754Z,7.35
2023-03-17T01:46:29.217Z,5.28
2023-03-17T01:49:07.927Z,4.65
2023-03-17T01:51:42.897Z,7.15
2023-03-17T01:54:15.249Z,4.50
2023-03-17T01:56:46.524Z,7.13
2023-03-17T01:59:20.694Z,9.13
2023-03-17T02:01:54.050Z,4.47
2023-03-17T02:04:22.407Z,6.50
2023-03-17T02:06:57.966Z,7.53
2023-03-17T02:09:28.622Z,6.72
2023-03-17T02:11:58.159Z,5.38
2023-03-17T02:14:26.649Z,10.35
2023-03-17T02:16:56.322Z,4.10
2023-03-17T02:19:25.098Z,5.43
2023-03-17T02:21:58.097Z,3.72
2023-03-17T02:24:33.104Z,4.00
2023-03-17T02:27:06.717Z,6.40
2023-03-17T02:29:37.847Z,6.28
2023-03-17T02:32:06.960Z,6.13
2023-03-17T02:34:35.359Z,5.20
2023-03-17T02:37:07.769Z,5.28
2023-03-17T02:39:36.296Z,9.25
2023-03-17T02:42:04.800Z,3.17
2023-03-17T02:44:34.641Z,6.73
2023-03-17T02:47:03.265Z,5.15
2023-03-17T02:49:32.088Z,3.42
2023-03-17T02:52:00.147Z,4.75
2023-03-17T02:54:29.563Z,6.28
2023-03-17T02:56:57.846Z,6.63
2023-03-17T02:59:26.424Z,5.22
2023-03-17T03:01:56.174Z,6.40
2023-03-17T03:04:26.116Z,4.15
2023-03-17T03:06:54.744Z,7.13
2023-03-17T03:09:22.841Z,6.70
2023-03-17T03:11:52.306Z,5.55
2023-03-17T03:14:20.476Z,7.40
2023-03-17T03:16:48.795Z,7.60
2023-03-17T03:19:16.941Z,7.65
2023-03-17T03:21:45.018Z,5.10
2023-03-17T03:24:13.315Z,5.57
2023-03-17T03:26:41.370Z,6.00
2023-03-17T03:29:10.808Z,6.70
2023-03-17T03:31:39.022Z,6.88
2023-03-17T03:34:07.333Z,8.88
2023-03-17T03:36:35.385Z,10.73
2023-03-17T03:39:03.340Z,5.78
2023-03-17T03:41:31.662Z,8.48
2023-03-17T03:43:59.700Z,7.80
2023-03-17T03:46:29.214Z,6.28
2023-03-17T03:48:57.248Z,9.43
2023-03-17T03:51:25.368Z,10.02
2023-03-17T03:53:53.454Z,8.80
2023-03-17T03:56:21.640Z,6.60
2023-03-17T03:58:49.651Z,7.40
2023-03-17T04:01:17.747Z,12.35
2023-03-17T04:03:47.439Z,14.70
2023-03-17T04:06:16.279Z,6.97
2023-03-17T04:08:44.356Z,8.00
2023-03-17T04:11:12.591Z,13.73
2023-03-17T04:13:40.622Z,8.80
2023-03-17T04:16:09.214Z,12.63
2023-03-17T04:18:37.368Z,13.18
2023-03-17T04:21:08.347Z,8.90
2023-03-17T04:26:05.123Z,12.75
2023-03-17T04:28:33.242Z,12.88
2023-03-17T04:31:01.544Z,17.20
2023-03-17T04:33:29.613Z,12.82
2023-03-17T04:35:58.549Z,13.30
2023-03-17T04:38:28.082Z,16.40
2023-03-17T04:40:56.218Z,10.50
2023-03-17T04:43:24.483Z,11.73
2023-03-17T04:45:52.537Z,12.23
2023-03-17T04:48:21.063Z,14.60
2023-03-17T04:50:49.040Z,15.68
2023-03-17T04:53:17.008Z,11.77
2023-03-17T04:55:46.680Z,11.45
2023-03-17T04:58:29.577Z,12.55
2023-03-17T05:00:58.827Z,13.40
2023-03-17T05:03:28.478Z,13.20
2023-03-17T05:05:57.385Z,12.57
2023-03-17T05:08:26.214Z,12.98
2023-03-17T05:10:56.104Z,14.27
2023-03-17T05:13:24.866Z,12.20
2023-03-17T05:15:54.500Z,16.27
2023-03-17T05:18:26.974Z,12.68
2023-03-17T05:20:55.304Z,14.75
2023-03-17T05:23:23.697Z,12.88
2023-03-17T05:25:52.699Z,11.75
2023-03-17T05:28:22.460Z,16.58
2023-03-17T05:30:50.816Z,9.85
2023-03-17T05:33:18.920Z,13.15
2023-03-17T05:35:47.623Z,10.55
2023-03-17T05:38:16.422Z,8.52
2023-03-17T05:40:44.775Z,8.27
2023-03-17T05:43:12.952Z,8.43
2023-03-17T05:45:42.451Z,7.82
2023-03-17T05:48:12.314Z,8.98
2023-03-17T05:50:41.809Z,7.15
2023-03-17T05:53:10.589Z,8.80
2023-03-17T05:55:38.961Z,10.13
2023-03-17T05:58:07.848Z,9.07
2023-03-17T06:00:36.446Z,10.32
2023-03-17T06:03:06.152Z,10.20
2023-03-17T06:05:34.248Z,9.73
2023-03-17T06:08:02.331Z,10.40
2023-03-17T06:10:30.717Z,9.95
2023-03-17T06:12:59.148Z,10.32
2023-03-17T06:15:27.664Z,12.52
2023-03-17T06:17:55.638Z,11.23
2023-03-17T06:20:25.192Z,11.25
2023-03-17T06:23:04.074Z,12.63
2023-03-17T06:25:33.609Z,11.57
2023-03-17T06:28:03.831Z,13.40
2023-03-17T06:30:33.970Z,13.77
2023-03-17T06:33:02.338Z,15.00
2023-03-17T06:35:32.799Z,13.10
2023-03-17T06:38:01.084Z,12.70
2023-03-17T06:40:29.456Z,12.45
2023-03-17T06:42:57.704Z,11.50
2023-03-17T06:45:26.057Z,13.45
2023-03-17T06:47:54.395Z,13.20
2023-03-17T06:50:22.579Z,12.00
2023-03-17T06:52:52.066Z,14.40
2023-03-17T06:55:21.334Z,12.63
2023-03-17T06:57:51.237Z,15.75
2023-03-17T07:00:21.067Z,16.33
2023-03-17T07:02:49.726Z,14.45
2023-03-17T07:05:18.012Z,15.13
2023-03-17T07:07:46.229Z,14.93
2023-03-17T07:10:17.301Z,18.27
2023-03-17T07:12:45.748Z,17.77
2023-03-17T07:15:13.957Z,17.55
2023-03-17T07:17:42.145Z,18.58
2023-03-17T07:20:11.961Z,17.52
2023-03-17T07:23:31.205Z,15.30
2023-03-17T07:26:00.598Z,16.60
2023-03-17T07:28:28.668Z,19.05
2023-03-17T07:30:58.172Z,20.17
2023-03-17T07:33:26.305Z,17.70
2023-03-17T07:35:55.117Z,18.95
2023-03-17T07:38:23.289Z,18.00
2023-03-17T07:40:53.007Z,18.55
2023-03-17T07:43:22.667Z,15.77
2023-03-17T07:45:51.013Z,20.92
2023-03-17T07:48:19.657Z,20.88
2023-03-17T07:50:47.735Z,17.05
2023-03-17T07:53:15.784Z,18.17
2023-03-17T07:55:43.818Z,16.98
2023-03-17T07:58:13.713Z,16.23
2023-03-17T08:00:44.512Z,17.83
2023-03-17T08:03:12.612Z,14.27
2023-03-17T08:05:41.098Z,14.60
2023-03-17T08:08:10.681Z,13.52
2023-03-17T08:10:38.781Z,16.75
2023-03-17T08:13:07.766Z,16.60
2023-03-17T08:15:36.396Z,16.67
2023-03-17T08:18:05.849Z,15.95
2023-03-17T08:20:34.929Z,15.95
2023-03-17T08:23:03.243Z,15.68
2023-03-17T08:25:31.691Z,11.95
2023-03-17T08:27:59.727Z,14.43
2023-03-17T08:31:45.197Z,11.15
2023-03-17T08:34:16.569Z,12.43
2023-03-17T08:36:44.722Z,11.80
2023-03-17T08:39:12.894Z,15.75
2023-03-17T08:41:41.770Z,9.98
2023-03-17T08:44:15.638Z,10.10
2023-03-17T08:46:43.845Z,7.90
2023-03-17T08:49:12.529Z,8.93
2023-03-17T08:51:42.001Z,9.77
2023-03-17T08:54:10.203Z,9.20
2023-03-17T08:56:39.101Z,6.43
2023-03-17T08:59:08.561Z,7.78
2023-03-17T09:01:37.661Z,7.18
2023-03-17T09:04:05.857Z,6.63
2023-03-17T09:06:34.019Z,6.50
2023-03-17T09:09:04.582Z,7.28
2023-03-17T09:11:35.865Z,7.35
2023-03-17T09:14:43.824Z,6.78
2023-03-17T09:17:14.629Z,7.40
2023-03-17T09:19:43.687Z,5.22
2023-03-17T09:22:14.435Z,6.38
2023-03-17T09:24:44.025Z,5.60
2023-03-17T09:27:12.333Z,6.45
2023-03-17T09:29:41.255Z,5.78
2023-03-17T09:32:41.952Z,6.65
2023-03-17T09:35:43.087Z,10.60
2023-03-17T09:38:31.902Z,5.93
2023-03-17T09:41:24.021Z,6.72
2023-03-17T09:48:12.082Z,15.65
2023-03-17T09:50:48.625Z,6.53
2023-03-17T09:57:20.528Z,6.07
2023-03-17T09:59:53.853Z,5.88
2023-03-17T10:02:32.807Z,4.63
2023-03-17T10:09:58.122Z,5.90
2023-03-17T10:12:46.547Z,6.50
2023-03-17T10:16:06.001Z,4.88
2023-03-17T10:19:42.124Z,5.57
2023-03-17T10:22:59.135Z,4.35
2023-03-17T10:25:34.374Z,4.72
2023-03-17T10:31:33.273Z,5.38
2023-03-17T10:34:14.323Z,4.57
2023-03-17T10:36:45.974Z,6.10
2023-03-17T10:39:40.285Z,5.72
2023-03-17T10:42:11.749Z,7.97
2023-03-17T10:44:58.530Z,5.70
2023-03-17T10:47:32.260Z,5.60
2023-03-17T10:50:05.593Z,6.97
2023-03-17T10:52:39.639Z,4.43
2023-03-17T10:55:09.123Z,3.38
2023-03-17T10:57:38.992Z,8.82
2023-03-17T11:03:27.320Z,5.53
2023-03-17T11:06:10.424Z,3.70
2023-03-17T11:08:42.579Z,5.00
2023-03-17T11:18:24.445Z,4.32
2023-03-17T11:21:20.478Z,4.10
2023-03-17T11:24:22.303Z,7.07
2023-03-17T11:27:25.411Z,3.35
2023-03-17T11:30:10.244Z,5.45
2023-03-17T11:32:43.689Z,4.97
2023-03-17T11:35:38.991Z,4.88
2023-03-17T11:41:54.774Z,6.35
2023-03-17T11:48:20.168Z,5.03
2023-03-17T11:50:57.905Z,6.65
2023-03-17T11:53:44.123Z,5.45
2023-03-17T11:56:18.474Z,6.45
2023-03-17T12:03:31.174Z,5.95
2023-03-17T12:06:22.124Z,7.28
2023-03-17T12:09:04.179Z,7.97
2023-03-17T12:12:01.782Z,5.50
2023-03-17T12:14:42.625Z,5.65
2023-03-17T12:17:35.590Z,7.70
2023-03-17T12:20:54.411Z,6.35
2023-03-17T12:27:21.977Z,4.57
2023-03-17T12:29:56.005Z,5.75
2023-03-17T12:32:30.416Z,7.10
2023-03-17T12:35:00.530Z,6.18
2023-03-17T12:37:30.117Z,7.40
2023-03-17T12:40:19.391Z,3.97
2023-03-17T12:42:53.687Z,7.45
2023-03-17T12:45:54.179Z,5.85
2023-03-17T12:49:22.841Z,6.88
2023-03-17T12:55:26.950Z,6.30
2023-03-17T12:58:03.486Z,6.80
2023-03-17T13:00:33.943Z,7.78
2023-03-17T13:03:17.330Z,5.65
2023-03-17T13:05:48.751Z,8.70
2023-03-17T13:08:23.101Z,7.70
2023-03-17T13:10:51.307Z,4.47
2023-03-17T13:13:37.760Z,9.40
2023-03-17T13:16:07.362Z,5.47
2023-03-17T13:19:07.466Z,5.90
2023-03-17T13:21:36.516Z,7.90
2023-03-17T13:24:50.972Z,5.07
2023-03-17T13:27:46.254Z,8.15
2023-03-17T13:30:58.360Z,5.93
2023-03-17T13:33:32.264Z,7.63
2023-03-17T13:36:10.830Z,6.47
2023-03-17T13:39:15.169Z,8.75
2023-03-17T13:41:57.651Z,6.32
2023-03-17T13:44:40.075Z,5.13
2023-03-17T13:47:27.506Z,5.63
2023-03-17T13:49:58.887Z,7.95
2023-03-17T13:52:33.738Z,9.43
2023-03-17T13:55:07.746Z,6.88
2023-03-17T13:57:40.262Z,5.57
2023-03-17T14:00:24.542Z,6.30
2023-03-17T14:03:02.193Z,5.22
2023-03-17T14:05:35.846Z,5.57
2023-03-17T14:08:07.358Z,3.63
2023-03-17T14:10:36.231Z,5.07
2023-03-17T14:13:19.152Z,3.67
2023-03-17T14:15:51.703Z,5.95
2023-03-17T14:18:23.946Z,4.22
2023-03-17T14:20:56.393Z,3.20
2023-03-17T14:23:25.088Z,3.42
2023-03-17T14:25:56.723Z,2.08
2023-03-17T14:28:27.910Z,2.97
2023-03-17T14:30:59.778Z,3.33
2023-03-17T14:33:30.615Z,3.67
2023-03-17T14:36:01.266Z,2.55
2023-03-17T14:38:31.868Z,4.03
2023-03-17T14:41:05.384Z,2.72
2023-03-17T14:48:31.893Z,3.63
2023-03-17T14:51:08.410Z,4.38
2023-03-17T14:53:43.199Z,1.85
2023-03-17T14:56:11.600Z,3.33
2023-03-17T14:58:43.712Z,4.18
2023-03-17T15:01:17.468Z,4.70
2023-03-17T15:04:00.359Z,5.72
2023-03-17T15:06:34.077Z,3.05
2023-03-17T15:09:04.663Z,5.10
2023-03-17T15:11:42.660Z,4.15
2023-03-17T15:14:21.046Z,5.95
2023-03-17T15:16:51.514Z,4.18
2023-03-17T15:19:24.869Z,3.80
2023-03-17T15:21:53.792Z,4.93
2023-03-17T15:24:35.183Z,2.55
2023-03-17T15:27:08.531Z,4.40
2023-03-17T15:29:36.640Z,4.25
2023-03-17T15:32:12.790Z,3.03
2023-03-17T15:34:42.453Z,4.80
2023-03-17T15:37:18.922Z,4.28
2023-03-17T15:39:47.881Z,5.50
2023-03-17T15:42:19.568Z,4.28
2023-03-17T15:44:48.008Z,2.20
2023-03-17T15:47:17.586Z,4.28
2023-03-17T15:49:48.363Z,3.83
2023-03-17T15:52:18.703Z,3.90
2023-03-17T15:54:46.865Z,1.75
2023-03-17T15:57:15.319Z,8.75
2023-03-17T15:59:43.330Z,4.93
2023-03-17T16:02:31.822Z,2.85
2023-03-17T16:05:03.632Z,3.05
2023-03-17T16:07:32.509Z,3.05
2023-03-17T16:10:00.835Z,5.60
2023-03-17T16:12:28.862Z,7.50
2023-03-17T16:14:56.961Z,3.35
2023-03-17T16:17:29.050Z,5.15
2023-03-17T16:24:59.117Z,5.93
2023-03-17T16:27:27.682Z,3.42
2023-03-17T16:29:55.758Z,5.30
2023-03-17T16:32:23.875Z,2.80
2023-03-17T16:34:51.980Z,7.40
2023-03-17T16:37:19.973Z,4.10
2023-03-17T16:39:52.208Z,4.43
2023-03-17T16:42:24.861Z,8.45
2023-03-17T16:44:53.007Z,6.28
2023-03-17T16:47:21.041Z,7.47
2023-03-17T16:49:49.140Z,8.25
2023-03-17T16:52:17.320Z,3.80
2023-03-17T16:54:45.514Z,3.50
2023-03-17T16:57:13.610Z,7.35
2023-03-17T16:59:43.300Z,6.78
2023-03-17T17:02:16.925Z,2.78
2023-03-17T17:04:45.131Z,4.97
2023-03-17T17:07:13.214Z,5.82
2023-03-17T17:09:41.261Z,7.93
2023-03-17T17:12:12.267Z,4.45
2023-03-17T17:14:40.315Z,5.82
2023-03-17T17:17:58.800Z,6.20
2023-03-17T17:20:31.120Z,9.02
2023-03-17T17:23:00.129Z,5.03
2023-03-17T17:25:28.815Z,7.72
2023-03-17T17:27:58.297Z,5.53
2023-03-17T17:30:29.712Z,8.18
2023-03-17T17:33:02.640Z,4.10
2023-03-17T17:35:34.091Z,5.32
2023-03-17T17:38:02.884Z,18.02
2023-03-17T17:40:32.390Z,10.43
2023-03-17T17:43:00.810Z,10.73
2023-03-17T17:45:28.908Z,5.55
2023-03-17T17:47:56.963Z,10.23
2023-03-17T17:50:27.588Z,9.02
2023-03-17T17:53:02.689Z,9.63
2023-03-17T17:55:31.138Z,6.55
2023-03-17T17:58:00.941Z,4.57
2023-03-17T18:00:30.712Z,8.82
2023-03-17T18:02:59.052Z,6.78
2023-03-17T18:05:27.486Z,10.60
2023-03-17T18:07:58.190Z,9.50
2023-03-17T18:10:29.503Z,10.20
2023-03-17T18:12:58.191Z,6.45
2023-03-17T18:15:28.383Z,8.05
2023-03-17T18:17:57.088Z,8.75
2023-03-17T18:20:26.475Z,6.25
2023-03-17T18:22:56.217Z,6.43
2023-03-17T18:25:25.514Z,8.52
2023-03-17T18:27:53.739Z,8.65
2023-03-17T18:30:25.270Z,8.52
2023-03-17T18:32:56.530Z,6.07
2023-03-17T18:35:27.097Z,5.75
2023-03-17T18:37:57.413Z,4.97
2023-03-17T18:40:26.021Z,7.78
2023-03-17T18:42:54.745Z,7.80
2023-03-17T18:45:25.711Z,6.30
2023-03-17T18:50:22.713Z,9.27
2023-03-17T18:52:51.293Z,4.55
2023-03-17T18:55:20.960Z,6.53
2023-03-17T18:57:49.008Z,7.32
2023-03-17T19:00:18.616Z,5.20
2023-03-17T19:02:47.399Z,11.43
2023-03-17T19:05:16.236Z,10.25
2023-03-17T19:07:44.574Z,9.57
2023-03-17T19:10:14.653Z,9.27
2023-03-17T19:12:46.189Z,8.20
2023-03-17T19:15:15.630Z,7.18
2023-03-17T19:17:43.690Z,7.00
2023-03-17T19:20:13.388Z,6.90
2023-03-17T19:22:41.716Z,12.40
2023-03-17T19:25:10.548Z,11.98
2023-03-17T19:27:38.946Z,9.15
2023-03-17T19:30:10.287Z,9.95
2023-03-17T19:32:38.654Z,10.77
2023-03-17T19:35:08.394Z,8.25
2023-03-17T19:37:38.157Z,12.00
2023-03-17T19:40:10.544Z,11.90
2023-03-17T19:42:38.855Z,9.32
2023-03-17T19:45:09.628Z,9.27
2023-03-17T19:47:37.672Z,7.32
2023-03-17T19:50:07.200Z,8.55
2023-03-17T19:52:35.514Z,6.10
2023-03-17T19:55:05.938Z,13.38
2023-03-17T19:57:35.476Z,9.68
2023-03-17T20:00:03.894Z,12.30
2023-03-17T20:02:39.685Z,11.52
2023-03-17T20:05:08.510Z,10.38
2023-03-17T20:07:37.203Z,11.88
2023-03-17T20:10:06.592Z,11.85
2023-03-17T20:12:38.003Z,9.90
2023-03-17T20:15:07.835Z,11.57
2023-03-17T20:17:36.853Z,14.73
2023-03-17T20:20:32.322Z,12.57
2023-03-17T20:23:00.991Z,15.43
2023-03-17T20:25:29.423Z,13.48
2023-03-17T20:27:57.685Z,18.27
2023-03-17T20:30:28.686Z,15.20
2023-03-17T20:32:56.983Z,17.35
2023-03-17T20:35:27.420Z,18.00
2023-03-17T20:37:57.981Z,14.20
2023-03-17T20:40:26.763Z,14.32
2023-03-17T20:42:54.992Z,16.73
2023-03-17T20:45:23.313Z,13.32
2023-03-17T20:47:51.356Z,14.38
2023-03-17T20:50:19.434Z,19.95
2023-03-17T20:52:47.916Z,16.08
2023-03-17T20:55:19.842Z,17.05
2023-03-17T20:57:48.653Z,15.18
2023-03-17T21:00:20.226Z,15.73
2023-03-17T21:02:50.366Z,16.00
2023-03-17T21:05:20.940Z,16.00
2023-03-17T21:07:49.673Z,20.92
2023-03-17T21:10:20.648Z,16.77
2023-03-17T21:15:18.279Z,16.73
2023-03-17T21:17:46.271Z,13.33
2023-03-17T21:20:14.922Z,16.83
2023-03-17T21:22:43.461Z,16.65
2023-03-17T21:25:12.773Z,16.52
2023-03-17T21:27:42.737Z,17.65
2023-03-17T21:30:13.491Z,14.80
2023-03-17T21:32:42.022Z,13.18
2023-03-17T21:35:13.117Z,12.25
2023-03-17T21:40:12.221Z,14.03
2023-03-17T21:42:40.736Z,13.38
2023-03-17T21:45:10.714Z,13.18
2023-03-17T21:47:40.855Z,9.88
2023-03-17T21:50:10.008Z,9.90
2023-03-17T21:52:38.427Z,16.70
2023-03-17T21:55:09.428Z,10.03
2023-03-17T22:00:07.878Z,14.95
2023-03-17T22:02:42.765Z,10.10
2023-03-17T22:05:11.428Z,13.60
2023-03-17T22:07:41.108Z,11.00
2023-03-17T22:10:10.283Z,14.65
2023-03-17T22:12:39.017Z,12.70
2023-03-17T22:15:08.889Z,11.77
2023-03-17T22:17:38.010Z,9.10
2023-03-17T22:20:09.095Z,11.70
2023-03-17T22:22:37.442Z,10.53
2023-03-17T22:25:07.584Z,9.05
2023-03-17T22:27:35.844Z,12.07
2023-03-17T22:30:03.891Z,9.85
2023-03-17T22:32:32.293Z,10.53
2023-03-17T22:35:00.508Z,8.73
2023-03-17T22:37:30.049Z,9.27
2023-03-17T22:40:02.430Z,10.13
2023-03-17T22:42:31.048Z,15.95
2023-03-17T22:44:59.271Z,11.23
2023-03-17T22:47:27.348Z,9.73
2023-03-17T22:49:55.359Z,11.10
2023-03-17T22:52:23.512Z,11.15
2023-03-17T22:54:52.882Z,12.07
2023-03-17T22:57:20.859Z,10.35
2023-03-17T22:59:48.933Z,8.30
2023-03-17T23:02:18.575Z,10.32
2023-03-17T23:04:46.804Z,10.10
2023-03-17T23:07:14.896Z,12.77
2023-03-17T23:09:43.492Z,9.02
2023-03-17T23:12:13.349Z,7.97
2023-03-17T23:14:42.067Z,8.70
2023-03-17T23:17:10.451Z,10.55
2023-03-17T23:19:38.579Z,9.55
2023-03-17T23:22:06.678Z,8.57
2023-03-17T23:24:34.712Z,12.63
2023-03-17T23:27:02.861Z,12.93
2023-03-17T23:29:32.809Z,11.20
2023-03-17T23:32:01.237Z,11.20
2023-03-17T23:34:29.779Z,11.50
2023-03-17T23:36:57.736Z,10.10
2023-03-17T23:39:26.221Z,9.73
2023-03-17T23:41:54.302Z,11.13
2023-03-17T23:44:22.641Z,8.90
2023-03-17T23:46:52.469Z,12.77
2023-03-17T23:49:20.804Z,10.93
2023-03-17T23:51:49.305Z,9.37
2023-03-17T23:54:17.508Z,13.30
2023-03-17T23:56:46.683Z,12.90
2023-03-17T23:59:14.715Z,15.68
